Time;durP1;ratioP1;P1;durP2;ratioP2;P2;SDS_P1;SDS_P2;PMS_P1;PMS_P2;Temp;Humidity;BMP_temperature;BMP_pressure;BME280_temperature;BME280_humidity;BME280_pressure;Samples;Min_cycle;Max_cycle;Signal;HPM_P1;HPM_P2
2023/06/24 00:03:01;;;;;;;6.40;2.70;;;;;;;15.36;85.14;102302.16;10426733;28;20045;-76
2023/06/24 00:08:06;;;;;;;4.70;2.47;;;;;;;15.28;85.52;102294.91;10428705;28;20126;-76
2023/06/24 00:13:08;;;;;;;7.00;2.80;;;;;;;15.24;85.71;102299.25;10444737;28;20076;-76
2023/06/24 00:18:10;;;;;;;4.75;2.58;;;;;;;15.18;85.94;102302.63;10410895;28;20080;-76
2023/06/24 00:23:24;;;;;;;4.93;2.75;;;;;;;15.11;86.19;102307.75;10424034;28;20037;-76
2023/06/24 00:28:26;;;;;;;4.85;2.47;;;;;;;15.06;86.25;102312.00;10441645;28;20041;-76
2023/06/24 00:33:28;;;;;;;6.03;2.60;;;;;;;15.02;86.62;102306.66;10424379;28;20068;-76
2023/06/24 00:38:32;;;;;;;7.28;2.80;;;;;;;14.98;86.73;102294.28;10456313;28;20088;-76
2023/06/24 00:43:34;;;;;;;5.63;2.70;;;;;;;14.95;87.15;102298.56;10412338;28;20725;-76
2023/06/24 00:48:36;;;;;;;7.85;3.30;;;;;;;14.90;87.26;102297.59;10396302;28;20065;-76
2023/06/24 00:53:38;;;;;;;6.55;2.95;;;;;;;14.84;87.24;102298.34;10437436;28;20112;-76
2023/06/24 00:58:42;;;;;;;7.90;3.13;;;;;;;14.78;87.53;102292.91;10443136;28;20079;-76
2023/06/24 01:03:43;;;;;;;7.68;3.78;;;;;;;14.74;87.88;102291.06;10442225;28;20129;-76
2023/06/24 01:08:50;;;;;;;5.43;2.95;;;;;;;14.73;87.95;102297.22;10423653;28;20484;-76
2023/06/24 01:13:52;;;;;;;8.80;4.10;;;;;;;14.64;88.04;102301.38;10392728;28;20041;-76
2023/06/24 01:19:00;;;;;;;6.38;3.33;;;;;;;14.57;88.37;102294.13;10413483;28;20136;-76
2023/06/24 01:24:24;;;;;;;6.43;2.97;;;;;;;14.49;88.40;102304.50;10439713;28;20128;-76
2023/06/24 01:30:02;;;;;;;7.38;3.42;;;;;;;14.45;88.70;102300.00;10447636;28;20049;-76
2023/06/24 01:35:11;;;;;;;11.77;3.25;;;;;;;14.45;88.64;102288.56;10416528;28;20048;-76
2023/06/24 01:40:25;;;;;;;6.78;3.30;;;;;;;14.42;88.80;102288.50;10417022;28;20072;-76
2023/06/24 01:45:29;;;;;;;5.47;2.92;;;;;;;14.32;88.74;102288.28;10421372;28;20128;-76
2023/06/24 01:50:33;;;;;;;5.97;2.95;;;;;;;14.25;89.04;102286.31;10438294;28;20625;-76
2023/06/24 01:55:38;;;;;;;6.40;3.17;;;;;;;14.17;88.99;102290.47;10420368;28;20068;-76
2023/06/24 02:00:40;;;;;;;5.68;2.47;;;;;;;14.08;89.24;102292.88;10466877;28;20094;-76
2023/06/24 02:05:44;;;;;;;6.07;2.80;;;;;;;14.01;89.13;102291.84;10459170;28;20700;-76
2023/06/24 02:10:48;;;;;;;5.40;2.95;;;;;;;13.90;89.40;102288.91;10475094;28;20063;-75
2023/06/24 02:15:51;;;;;;;6.22;3.25;;;;;;;13.90;89.40;102288.91;10456992;28;20090;-75
2023/06/24 02:20:56;;;;;;;7.97;3.83;;;;;;;13.95;89.63;102283.78;10508228;28;20497;-76
2023/06/24 02:25:59;;;;;;;8.88;3.13;;;;;;;13.94;89.61;102274.97;10500447;28;20068;-76
2023/06/24 02:31:01;;;;;;;7.68;3.95;;;;;;;13.91;89.91;102288.03;10491410;28;20048;-75
2023/06/24 02:36:03;;;;;;;8.43;3.70;;;;;;;13.90;90.05;102282.75;10473454;28;20040;-76
2023/06/24 02:41:05;;;;;;;7.03;3.63;;;;;;;13.86;90.06;102287.03;10492024;28;20455;-76
2023/06/24 02:46:09;;;;;;;8.75;3.67;;;;;;;13.85;90.17;102287.88;10473947;28;20053;-76
2023/06/24 02:51:11;;;;;;;7.28;3.80;;;;;;;13.85;90.23;102290.53;10473998;28;20056;-76
2023/06/24 02:56:20;;;;;;;9.80;3.90;;;;;;;13.79;90.34;102282.44;10474588;28;20055;-76
2023/06/24 03:01:25;;;;;;;5.72;3.55;;;;;;;13.72;90.56;102298.91;10475908;28;20045;-76
2023/06/24 03:06:28;;;;;;;5.88;3.05;;;;;;;13.67;90.64;102288.25;10469947;28;20053;-75
2023/06/24 03:11:44;;;;;;;10.73;3.72;;;;;;;13.67;90.70;102284.75;10476808;28;20044;-76
2023/06/24 03:16:54;;;;;;;9.63;4.03;;;;;;;13.70;90.85;102304.13;10460269;28;20641;-76
2023/06/24 03:21:57;;;;;;;9.52;4.10;;;;;;;13.69;90.96;102314.63;10472062;28;20045;-75
2023/06/24 03:27:00;;;;;;;7.55;3.90;;;;;;;13.67;91.00;102324.22;10490801;28;20135;-76
2023/06/24 03:32:10;;;;;;;7.53;3.70;;;;;;;13.66;91.08;102320.72;10470673;28;20055;-75
2023/06/24 03:37:12;;;;;;;7.93;3.85;;;;;;;13.68;90.93;102326.91;10471747;28;20044;-74
2023/06/24 03:42:16;;;;;;;8.30;3.90;;;;;;;13.70;90.95;102340.13;10470770;28;20135;-75
2023/06/24 03:47:18;;;;;;;7.68;3.75;;;;;;;13.68;91.07;102328.66;10488253;28;20541;-75
2023/06/24 03:52:19;;;;;;;6.18;3.42;;;;;;;13.68;91.29;102323.41;10474495;28;20055;-75
2023/06/24 03:57:22;;;;;;;9.23;4.20;;;;;;;13.72;91.20;102323.53;10471175;28;20055;-75
2023/06/24 04:02:24;;;;;;;8.10;4.32;;;;;;;13.70;91.32;102319.06;10470659;28;20044;-75
2023/06/24 04:07:28;;;;;;;6.97;3.67;;;;;;;13.70;91.53;102329.59;10488811;28;20052;-75
2023/06/24 04:12:31;;;;;;;9.23;4.97;;;;;;;13.76;91.63;102332.38;10470283;28;20414;-75
2023/06/24 04:17:33;;;;;;;7.40;3.92;;;;;;;13.83;92.12;102323.81;10488177;28;20052;-75
2023/06/24 04:22:36;;;;;;;7.78;3.92;;;;;;;13.89;91.85;102326.63;10468648;28;20036;-75
2023/06/24 04:27:38;;;;;;;9.63;3.90;;;;;;;13.94;91.86;102332.91;10469046;28;20056;-74
2023/06/24 04:32:42;;;;;;;14.32;4.35;;;;;;;14.15;92.09;102336.97;10461496;28;20115;-75
2023/06/24 04:37:43;;;;;;;9.00;4.45;;;;;;;14.30;92.34;102332.09;10452931;28;20052;-75
2023/06/24 04:42:46;;;;;;;7.65;4.22;;;;;;;14.30;92.23;102326.84;10465315;28;20425;-74
2023/06/24 04:47:48;;;;;;;8.57;4.88;;;;;;;14.29;92.13;102325.06;10485406;28;20083;-75
2023/06/24 04:52:56;;;;;;;8.13;4.13;;;;;;;14.37;92.11;102319.13;10488571;28;20048;-75
2023/06/24 04:57:57;;;;;;;8.93;4.43;;;;;;;14.45;92.39;102328.09;10480015;28;20049;-75
2023/06/24 05:02:59;;;;;;;7.38;4.22;;;;;;;14.59;92.51;102329.34;10486366;28;20418;-75
2023/06/24 05:08:01;;;;;;;10.77;5.63;;;;;;;14.67;92.70;102321.66;10479719;28;20454;-75
2023/06/24 05:13:03;;;;;;;9.05;4.13;;;;;;;14.79;92.81;102332.50;10484979;28;20140;-75
2023/06/24 05:18:04;;;;;;;8.68;4.72;;;;;;;14.98;92.69;102323.28;10472575;28;20076;-75
2023/06/24 05:23:06;;;;;;;8.50;3.92;;;;;;;15.14;92.93;102332.44;10485717;28;20131;-75
2023/06/24 05:28:07;;;;;;;9.73;4.65;;;;;;;15.27;92.86;102330.97;10480994;28;20047;-75
2023/06/24 05:33:10;;;;;;;9.13;3.70;;;;;;;15.52;92.81;102331.50;10479643;28;20040;-75
2023/06/24 05:38:11;;;;;;;8.50;3.92;;;;;;;15.74;92.59;102320.53;10481748;28;20067;-75
2023/06/24 05:43:13;;;;;;;7.65;4.47;;;;;;;16.13;92.34;102325.72;10495197;28;20102;-75
2023/06/24 05:48:15;;;;;;;7.68;3.67;;;;;;;16.36;91.85;102312.91;10482661;28;20079;-75
2023/06/24 05:53:16;;;;;;;6.93;3.97;;;;;;;16.55;91.02;102296.47;10468552;28;20056;-76
2023/06/24 05:58:18;;;;;;;7.28;3.58;;;;;;;16.81;90.22;102300.41;10487459;28;20641;-75
2023/06/24 06:03:19;;;;;;;9.65;4.00;;;;;;;16.92;89.28;102312.09;10467234;28;20056;-76
2023/06/24 06:08:21;;;;;;;7.60;3.13;;;;;;;16.95;88.55;102317.44;10502837;28;20052;-76
2023/06/24 06:13:23;;;;;;;12.43;3.30;;;;;;;17.14;88.38;102322.13;10466339;28;20084;-76
2023/06/24 06:18:24;;;;;;;7.03;4.00;;;;;;;17.39;87.62;102335.69;10478813;28;20082;-76
2023/06/24 06:23:27;;;;;;;8.30;3.53;;;;;;;17.77;87.09;102334.38;10492425;28;20123;-76
2023/06/24 06:28:28;;;;;;;8.60;3.75;;;;;;;18.13;85.95;102341.88;10488364;28;20846;-76
2023/06/24 06:33:30;;;;;;;11.85;4.18;;;;;;;18.51;84.72;102357.31;10488729;28;20064;-76
2023/06/24 06:38:34;;;;;;;8.95;3.80;;;;;;;18.88;82.76;102356.75;10487597;28;20581;-76
2023/06/24 06:43:37;;;;;;;9.52;4.15;;;;;;;18.88;82.76;102356.75;10492085;28;20048;-75
2023/06/24 06:48:39;;;;;;;9.85;4.20;;;;;;;19.60;79.55;102346.53;10445770;28;20135;-76
2023/06/24 06:53:41;;;;;;;10.48;3.78;;;;;;;19.70;77.56;102341.28;10479995;28;20090;-77
2023/06/24 06:58:43;;;;;;;7.30;3.05;;;;;;;20.15;76.61;102347.66;10475606;28;20498;-77
2023/06/24 07:03:45;;;;;;;11.00;4.10;;;;;;;20.44;75.24;102339.69;10481505;28;20119;-78
2023/06/24 07:08:46;;;;;;;14.65;3.65;;;;;;;20.91;74.01;102345.03;10486802;28;20476;-77
2023/06/24 07:13:50;;;;;;;10.70;2.97;;;;;;;21.45;71.09;64009.78;10489156;28;20458;-76
2023/06/24 07:18:52;;;;;;;5.93;2.92;;;;;;;21.78;69.09;102345.69;10486904;28;20422;-76
2023/06/24 07:23:53;;;;;;;6.22;2.58;;;;;;;22.08;67.55;102347.28;10485024;28;20764;-77
2023/06/24 07:28:59;;;;;;;9.98;2.72;;;;;;;22.44;66.06;102347.09;10481731;28;20573;-77
2023/06/24 07:34:09;;;;;;;6.90;2.70;;;;;;;22.71;64.30;102353.97;10474955;28;20406;-76
2023/06/24 07:40:03;;;;;;;6.25;2.72;;;;;;;23.00;63.22;102359.06;10471677;28;20067;-76
2023/06/24 07:46:18;;;;;;;5.43;2.47;;;;;;;23.35;61.99;102360.50;10465475;28;20082;-77
2023/06/24 07:52:35;;;;;;;10.55;2.47;;;;;;;23.21;61.47;102359.75;10486968;28;20040;-77
2023/06/24 07:58:26;;;;;;;4.53;1.90;;;;;;;22.74;61.34;102360.19;10476302;28;20037;-77
2023/06/24 08:03:28;;;;;;;5.15;2.38;;;;;;;22.71;61.51;102367.31;10485771;28;20040;-75
2023/06/24 08:08:30;;;;;;;7.07;2.38;;;;;;;22.63;61.06;102354.06;10504951;28;20155;-79
2023/06/24 08:13:31;;;;;;;5.85;2.10;;;;;;;22.84;60.82;102357.44;10512145;28;20037;-78
2023/06/24 08:18:33;;;;;;;4.80;2.28;;;;;;;22.99;60.96;102351.94;10477154;28;20525;-74
2023/06/24 08:23:35;;;;;;;4.47;2.10;;;;;;;23.25;61.10;102354.34;10492315;28;20564;-75
2023/06/24 08:28:36;;;;;;;6.65;2.42;;;;;;;23.90;60.52;102344.69;10492999;28;20064;-79
2023/06/24 08:33:38;;;;;;;6.45;2.20;;;;;;;24.12;58.03;102358.63;10494015;28;20084;-75
2023/06/24 08:38:39;;;;;;;3.55;2.00;;;;;;;24.48;57.91;102340.22;10489879;28;20048;-75
2023/06/24 08:43:42;;;;;;;6.10;2.08;;;;;;;24.81;57.49;102341.47;10491421;28;20704;-75
2023/06/24 08:48:45;;;;;;;3.95;1.95;;;;;;;25.35;56.42;102350.31;10456998;28;20078;-74
2023/06/24 08:53:48;;;;;;;3.05;1.83;;;;;;;24.98;55.28;102340.28;10462834;28;20045;-75
2023/06/24 08:58:51;;;;;;;5.35;2.22;;;;;;;24.73;54.99;102338.06;10489377;28;20079;-75
2023/06/24 09:03:52;;;;;;;4.18;1.88;;;;;;;24.92;55.47;102330.59;10487486;28;20072;-75
2023/06/24 09:08:55;;;;;;;5.72;2.35;;;;;;;25.05;54.95;102342.81;10470456;28;20053;-75
2023/06/24 09:13:58;;;;;;;5.65;2.25;;;;;;;25.08;54.89;102338.31;10488866;28;20123;-75
2023/06/24 09:19:00;;;;;;;4.13;2.15;;;;;;;25.83;54.36;102330.53;10494455;28;20041;-75
2023/06/24 09:24:01;;;;;;;4.45;2.10;;;;;;;25.99;53.22;102326.63;10463202;28;20554;-76
2023/06/24 09:29:04;;;;;;;7.07;2.45;;;;;;;25.74;52.58;102320.88;10492454;28;20071;-76
2023/06/24 09:34:12;;;;;;;4.88;2.10;;;;;;;26.27;52.17;102313.41;10498439;28;20106;-74
2023/06/24 09:39:14;;;;;;;6.25;2.40;;;;;;;26.53;52.18;102314.56;10499436;28;20055;-74
2023/06/24 09:44:30;;;;;;;8.70;1.75;;;;;;;26.79;52.22;102313.00;10504673;28;20090;-76
2023/06/24 09:49:31;;;;;;;;;;;;;;;26.97;51.84;102317.00;10488726;28;20128;-76
2023/06/24 09:54:33;;;;;;;;;;;;;;;26.37;51.29;102315.88;10497926;28;19951;-76
2023/06/24 09:59:36;;;;;;;10.95;2.58;;;;;;;26.49;51.74;102304.81;10498839;28;19928;-77
2023/06/24 10:04:38;;;;;;;6.80;2.78;;;;;;;26.74;51.04;102294.34;10461932;28;20056;-77
2023/06/24 10:09:40;;;;;;;4.72;2.33;;;;;;;26.77;51.80;102296.06;10490647;28;20054;-76
2023/06/24 10:14:42;;;;;;;8.45;2.85;;;;;;;26.93;51.45;102292.03;10493387;28;20207;-77
2023/06/24 10:19:44;;;;;;;4.43;2.03;;;;;;;27.16;51.82;102282.44;10498568;28;20044;-77
2023/06/24 10:24:46;;;;;;;5.88;2.33;;;;;;;27.65;50.82;102288.16;10488065;28;20140;-76
2023/06/24 10:29:50;;;;;;;4.22;2.08;;;;;;;27.30;50.55;102280.19;10496352;28;20048;-77
2023/06/24 10:34:56;;;;;;;5.35;2.30;;;;;;;27.44;50.86;102274.47;10503736;28;20459;-77
2023/06/24 10:40:02;;;;;;;5.47;2.67;;;;;;;27.51;50.38;102270.63;10491202;28;20387;-77
2023/06/24 10:45:09;;;;;;;6.72;2.65;;;;;;;27.76;49.84;102274.34;10509652;28;20044;-76
2023/06/24 10:50:13;;;;;;;5.37;2.37;;;;;;;27.14;50.43;102262.75;10514714;28;20067;-77
2023/06/24 10:55:17;;;;;;;5.18;2.22;;;;;;;27.12;50.73;102261.94;10473391;28;20860;-76
2023/06/24 11:00:20;;;;;;;3.88;1.98;;;;;;;27.57;50.93;102261.50;10499961;28;20493;-77
2023/06/24 11:05:22;;;;;;;5.75;2.20;;;;;;;27.73;49.95;102263.69;10498307;28;20124;-76
2023/06/24 11:10:25;;;;;;;5.45;2.17;;;;;;;27.85;49.37;102260.63;10494414;28;20040;-76
2023/06/24 11:15:26;;;;;;;3.75;2.13;;;;;;;27.44;49.51;102262.81;10480364;28;20131;-76
2023/06/24 11:20:28;;;;;;;6.90;2.28;;;;;;;27.74;50.21;102243.94;10499228;28;20101;-76
2023/06/24 11:25:30;;;;;;;4.03;1.98;;;;;;;28.05;49.07;102249.22;10496354;28;20071;-75
2023/06/24 11:30:34;;;;;;;4.60;2.03;;;;;;;28.01;48.25;102245.78;10498276;28;20102;-76
2023/06/24 11:35:37;;;;;;;4.68;2.33;;;;;;;27.21;49.08;102236.59;10497608;28;20045;-75
2023/06/24 11:40:38;;;;;;;4.80;2.17;;;;;;;27.20;50.15;102237.50;10498391;28;20094;-73
2023/06/24 11:45:40;;;;;;;4.93;2.33;;;;;;;27.73;50.86;102236.78;10498197;28;20128;-73
2023/06/24 11:50:41;;;;;;;9.35;2.33;;;;;;;28.33;50.17;102233.03;10483169;28;20044;-74
2023/06/24 11:55:43;;;;;;;2.92;1.70;;;;;;;28.46;50.07;102227.19;10498795;28;20136;-74
2023/06/24 12:00:46;;;;;;;5.85;2.20;;;;;;;28.67;48.97;102226.44;10498659;28;20135;-74
2023/06/24 12:05:48;;;;;;;5.35;2.65;;;;;;;28.44;48.60;102231.75;10475795;28;20059;-74
2023/06/24 12:10:50;;;;;;;4.05;2.03;;;;;;;28.43;48.11;102232.69;10496029;28;20628;-75
2023/06/24 12:15:51;;;;;;;5.10;2.67;;;;;;;28.52;48.37;102224.28;10498452;28;20144;-75
2023/06/24 12:20:53;;;;;;;4.63;2.65;;;;;;;28.14;48.61;102218.44;10505414;28;20564;-74
2023/06/24 12:25:55;;;;;;;8.40;2.55;;;;;;;27.75;49.07;102226.88;10481892;28;20143;-75
2023/06/24 12:30:56;;;;;;;6.60;2.40;;;;;;;28.10;49.92;102230.22;10498142;28;20049;-75
2023/06/24 12:35:58;;;;;;;4.70;2.65;;;;;;;28.26;48.92;102215.31;10499089;28;20546;-75
2023/06/24 12:41:00;;;;;;;4.75;2.50;;;;;;;27.71;48.91;102217.13;10498848;28;20083;-74
2023/06/24 12:46:01;;;;;;;3.65;2.20;;;;;;;27.31;48.71;102212.06;10497218;28;20056;-74
2023/06/24 12:51:03;;;;;;;4.38;2.20;;;;;;;27.15;49.57;102213.44;10482877;28;20094;-75
2023/06/24 12:56:05;;;;;;;6.63;2.72;;;;;;;27.51;49.90;102200.69;10498099;28;20071;-75
2023/06/24 13:01:06;;;;;;;4.25;2.22;;;;;;;27.45;49.06;102205.41;10480791;28;20105;-74
2023/06/24 13:06:08;;;;;;;;;;;;;;;27.76;48.81;102213.38;10498794;28;20469;-75
2023/06/24 13:11:10;;;;;;;5.65;2.40;;;;;;;28.02;48.12;102211.66;10498907;28;19986;-74
2023/06/24 13:16:11;;;;;;;5.00;1.90;;;;;;;28.29;47.43;102208.94;10480292;28;20072;-75
2023/06/24 13:21:13;;;;;;;5.43;2.35;;;;;;;28.31;47.17;102199.84;10502394;28;20657;-74
2023/06/24 13:26:17;;;;;;;6.88;2.17;;;;;;;28.70;47.35;102207.47;10495151;28;20044;-75
2023/06/24 13:31:18;;;;;;;5.55;2.10;;;;;;;28.43;45.66;102198.53;10499464;28;20072;-74
2023/06/24 13:36:36;;;;;;;3.53;1.90;;;;;;;28.20;45.97;102193.97;10499726;28;20051;-74
2023/06/24 13:41:38;;;;;;;5.07;1.90;;;;;;;28.56;46.41;102196.28;10500545;28;20067;-74
2023/06/24 13:46:40;;;;;;;4.75;1.80;;;;;;;28.19;45.79;102193.13;10466170;28;20071;-75
2023/06/24 13:51:42;;;;;;;4.47;1.90;;;;;;;27.92;46.20;102184.13;10502903;28;20731;-74
2023/06/24 13:56:44;;;;;;;3.38;1.85;;;;;;;27.85;46.06;102185.28;10500828;28;20517;-74
2023/06/24 14:01:46;;;;;;;4.40;2.15;;;;;;;27.82;47.51;102182.69;10506614;28;20052;-74
2023/06/24 14:06:47;;;;;;;3.90;1.88;;;;;;;27.75;47.32;102181.13;10510089;28;20048;-74
2023/06/24 14:11:49;;;;;;;2.80;1.60;;;;;;;27.72;47.58;102176.72;10511042;28;20052;-74
2023/06/24 14:16:51;;;;;;;4.20;2.05;;;;;;;27.34;47.58;102170.78;10511530;28;20140;-74
2023/06/24 14:21:52;;;;;;;3.80;1.80;;;;;;;27.33;48.46;102167.19;10514655;28;20418;-74
2023/06/24 14:26:54;;;;;;;3.97;2.00;;;;;;;27.72;48.26;102171.34;10509276;28;20615;-74
2023/06/24 14:31:56;;;;;;;5.10;1.85;;;;;;;27.78;47.58;102164.88;10508571;28;20060;-74
2023/06/24 14:36:57;;;;;;;3.78;1.88;;;;;;;27.71;47.13;102168.69;10490350;28;20048;-74
2023/06/24 14:41:59;;;;;;;5.68;2.58;;;;;;;27.54;47.52;102164.75;10508253;28;20357;-74
2023/06/24 14:47:01;;;;;;;4.30;2.35;;;;;;;27.38;47.56;102161.66;10507257;28;20836;-74
2023/06/24 14:52:03;;;;;;;3.83;2.05;;;;;;;27.38;47.41;102144.66;10510841;28;20080;-74
2023/06/24 14:57:04;;;;;;;5.05;2.10;;;;;;;27.52;47.77;102162.13;10503804;28;20041;-74
2023/06/24 15:02:06;;;;;;;3.78;2.00;;;;;;;27.54;47.86;102159.38;10508180;28;20076;-74
2023/06/24 15:07:07;;;;;;;2.55;1.63;;;;;;;27.43;48.20;102153.44;10508262;28;20635;-74
2023/06/24 15:12:10;;;;;;;3.33;1.80;;;;;;;27.41;48.42;102147.25;10492611;28;20068;-73
2023/06/24 15:17:11;;;;;;;5.03;2.13;;;;;;;27.37;48.66;102149.19;10484986;28;20075;-74
2023/06/24 15:22:13;;;;;;;8.43;3.08;;;;;;;27.27;48.55;102137.78;10477388;28;20049;-74
2023/06/24 15:27:15;;;;;;;4.20;2.40;;;;;;;27.40;48.53;102132.03;10484969;28;20127;-74
2023/06/24 15:32:17;;;;;;;4.43;2.22;;;;;;;27.35;48.88;102137.56;10489493;28;20109;-74
2023/06/24 15:37:19;;;;;;;4.80;2.10;;;;;;;27.20;48.74;102138.03;10508685;28;20461;-75
2023/06/24 15:42:21;;;;;;;5.72;2.58;;;;;;;27.19;48.94;102129.09;10502894;28;20060;-75
2023/06/24 15:47:22;;;;;;;4.95;2.30;;;;;;;27.19;48.81;102128.19;10483121;28;20116;-76
2023/06/24 15:52:24;;;;;;;5.43;1.95;;;;;;;27.21;48.63;102126.34;10503583;28;20072;-82
2023/06/24 15:57:26;;;;;;;4.15;2.08;;;;;;;27.28;49.56;102128.78;10504421;28;20093;-76
2023/06/24 16:02:27;;;;;;;4.70;2.20;;;;;;;27.22;48.79;102118.25;10508101;28;20040;-77
2023/06/24 16:07:29;;;;;;;5.05;2.40;;;;;;;27.13;49.91;102123.91;10491638;28;20074;-77
2023/06/24 16:12:31;;;;;;;11.15;2.63;;;;;;;26.76;49.70;102125.03;10488715;28;20722;-78
2023/06/24 16:17:32;;;;;;;4.15;1.83;;;;;;;26.68;50.74;102124.34;10494891;28;20119;-78
2023/06/24 16:22:34;;;;;;;5.93;1.90;;;;;;;26.57;50.19;102114.81;10478589;28;20036;-77
2023/06/24 16:27:36;;;;;;;6.60;2.20;;;;;;;26.55;50.33;102113.06;10508671;28;20056;-77
2023/06/24 16:32:37;;;;;;;4.32;2.15;;;;;;;26.48;50.91;102115.03;10510970;28;20044;-76
2023/06/24 16:37:41;;;;;;;5.65;2.28;;;;;;;26.38;51.19;102117.13;10512365;28;20071;-76
2023/06/24 16:42:43;;;;;;;3.78;1.80;;;;;;;26.29;51.12;102115.56;10507402;28;20064;-74
2023/06/24 16:47:44;;;;;;;3.63;1.88;;;;;;;26.42;51.91;102116.13;10507761;28;20080;-75
2023/06/24 16:52:46;;;;;;;3.30;1.40;;;;;;;26.37;51.57;102118.03;10508568;28;20058;-76
2023/06/24 16:57:47;;;;;;;2.75;1.40;;;;;;;26.34;51.27;102122.63;10511442;28;20044;-75
2023/06/24 17:02:49;;;;;;;3.60;1.77;;;;;;;26.11;53.77;102124.16;10498681;28;20557;-75
2023/06/24 17:07:51;;;;;;;4.85;2.15;;;;;;;25.83;55.15;102111.41;10509230;28;20047;-75
2023/06/24 17:12:52;;;;;;;3.40;1.70;;;;;;;26.09;56.26;102105.41;10508690;28;20067;-75
2023/06/24 17:17:54;;;;;;;3.97;2.00;;;;;;;26.63;55.97;102109.25;10507165;28;20079;-74
2023/06/24 17:22:56;;;;;;;5.30;2.15;;;;;;;26.65;55.74;102111.88;10508078;28;20054;-74
2023/06/24 17:27:58;;;;;;;7.32;2.70;;;;;;;26.38;55.94;102116.25;10491047;28;20072;-75
2023/06/24 17:33:00;;;;;;;5.00;2.30;;;;;;;25.88;57.04;102113.97;10474394;28;20131;-74
2023/06/24 17:38:01;;;;;;;6.15;2.47;;;;;;;25.24;58.77;102115.50;10516846;28;20048;-75
2023/06/24 17:43:03;;;;;;;6.75;3.00;;;;;;;24.97;60.21;102118.81;10499313;28;20486;-75
2023/06/24 17:48:05;;;;;;;7.40;3.33;;;;;;;24.73;60.53;102114.88;10518167;28;20135;-74
2023/06/24 17:53:06;;;;;;;11.15;3.15;;;;;;;24.50;60.45;102105.47;10517466;28;20059;-74
2023/06/24 17:58:08;;;;;;;7.82;2.65;;;;;;;24.32;60.88;102104.06;10518205;28;20068;-74
2023/06/24 18:03:09;;;;;;;6.30;2.65;;;;;;;24.20;61.65;102109.66;10489721;28;20135;-75
2023/06/24 18:08:11;;;;;;;4.85;2.40;;;;;;;24.15;61.97;102107.06;10495705;28;20050;-75
2023/06/24 18:13:13;;;;;;;5.35;2.33;;;;;;;24.09;61.59;102102.69;10506884;28;20078;-75
2023/06/24 18:18:14;;;;;;;5.50;2.60;;;;;;;23.98;61.38;102110.06;10495435;28;20047;-75
2023/06/24 18:23:16;;;;;;;5.82;2.60;;;;;;;23.81;61.64;102108.53;10483947;28;20048;-75
2023/06/24 18:28:17;;;;;;;5.80;2.75;;;;;;;23.72;61.95;102114.03;10511752;28;20105;-75
2023/06/24 18:33:19;;;;;;;7.78;2.50;;;;;;;23.68;61.80;102101.63;10514310;28;20059;-75
2023/06/24 18:38:20;;;;;;;6.75;2.78;;;;;;;23.57;62.08;102099.13;10514473;28;20431;-75
2023/06/24 18:43:22;;;;;;;6.93;2.83;;;;;;;23.52;62.04;102106.31;10511210;28;20531;-75
2023/06/24 18:48:24;;;;;;;4.97;2.03;;;;;;;23.55;62.75;102094.72;10513540;28;20126;-76
2023/06/24 18:53:25;;;;;;;8.95;3.40;;;;;;;23.34;62.93;102102.16;10495239;28;20505;-75
2023/06/24 18:58:28;;;;;;;4.95;2.55;;;;;;;23.22;63.72;102094.34;10459484;28;20537;-75
2023/06/24 19:03:30;;;;;;;9.80;2.78;;;;;;;22.97;64.54;102091.09;10513163;28;20097;-75
2023/06/24 19:08:32;;;;;;;5.90;2.67;;;;;;;22.88;65.06;102092.09;10510829;28;20162;-75
2023/06/24 19:13:33;;;;;;;6.05;2.78;;;;;;;22.85;65.49;102089.47;10513308;28;20589;-75
2023/06/24 19:18:35;;;;;;;6.63;2.88;;;;;;;22.74;65.70;102085.19;10513339;28;20044;-75
2023/06/24 19:23:37;;;;;;;5.40;2.40;;;;;;;22.69;66.04;102089.69;10511153;28;20453;-75
2023/06/24 19:28:38;;;;;;;8.25;2.70;;;;;;;22.55;66.55;102094.34;10517607;28;20462;-76
2023/06/24 19:33:40;;;;;;;5.03;2.38;;;;;;;22.46;66.87;102099.75;10500429;28;20138;-75
2023/06/24 19:38:42;;;;;;;8.45;2.55;;;;;;;22.38;67.13;102092.75;10500178;28;20127;-76
2023/06/24 19:43:47;;;;;;;5.65;2.60;;;;;;;22.25;67.59;102093.75;10480683;28;20044;-75
2023/06/24 19:48:49;;;;;;;4.15;1.90;;;;;;;22.15;67.86;102094.75;10485859;28;20102;-75
2023/06/24 19:53:50;;;;;;;5.68;2.13;;;;;;;22.01;67.70;102098.44;10517121;28;20127;-75
2023/06/24 19:58:52;;;;;;;6.72;2.53;;;;;;;21.89;67.68;102095.91;10517488;28;20513;-75
2023/06/24 20:03:54;;;;;;;5.47;2.30;;;;;;;21.81;68.30;102103.97;10518021;28;20051;-76
2023/06/24 20:08:55;;;;;;;6.22;2.50;;;;;;;21.68;68.43;102107.63;10533336;28;20047;-76
2023/06/24 20:13:58;;;;;;;5.32;2.30;;;;;;;21.47;68.34;102104.19;10499598;28;20106;-75
2023/06/24 20:19:00;;;;;;;6.03;2.45;;;;;;;21.40;68.52;102109.59;10499362;28;20409;-77
2023/06/24 20:24:02;;;;;;;3.95;2.10;;;;;;;21.24;68.70;102107.00;10516963;28;20055;-77
2023/06/24 20:29:03;;;;;;;6.78;2.17;;;;;;;21.13;68.52;102107.06;10517394;28;20518;-76
2023/06/24 20:34:06;;;;;;;4.82;1.90;;;;;;;21.07;69.07;102101.78;10517670;28;20071;-76
2023/06/24 20:39:08;;;;;;;5.65;2.40;;;;;;;20.93;68.95;102108.97;10500000;28;20114;-76
2023/06/24 20:44:11;;;;;;;5.13;2.17;;;;;;;20.83;69.28;102103.69;10515900;28;20051;-76
2023/06/24 20:49:12;;;;;;;5.95;2.28;;;;;;;20.73;69.83;102093.09;10518111;28;20551;-76
2023/06/24 20:54:14;;;;;;;6.63;2.28;;;;;;;20.61;69.98;102096.66;10517679;28;20123;-76
2023/06/24 20:59:16;;;;;;;4.95;1.88;;;;;;;20.51;70.55;102094.91;10500551;28;20097;-77
2023/06/24 21:04:17;;;;;;;4.32;1.92;;;;;;;20.39;70.67;102093.19;10517772;28;20130;-76
2023/06/24 21:09:19;;;;;;;6.65;2.40;;;;;;;20.27;70.81;102092.31;10499574;28;20135;-76
2023/06/24 21:14:20;;;;;;;7.20;2.15;;;;;;;20.19;71.47;102094.13;10495151;28;20062;-76
2023/06/24 21:19:22;;;;;;;8.93;2.42;;;;;;;20.13;71.31;102088.81;10517628;28;20082;-76
2023/06/24 21:24:24;;;;;;;6.60;2.22;;;;;;;20.00;71.80;102082.63;10491576;28;20059;-77
2023/06/24 21:29:27;;;;;;;4.50;2.10;;;;;;;19.94;71.72;102070.25;10500262;28;20043;-76
2023/06/24 21:34:29;;;;;;;6.68;2.78;;;;;;;19.88;71.88;102070.25;10518184;28;20048;-76
2023/06/24 21:39:30;;;;;;;5.30;2.38;;;;;;;19.82;72.41;102075.56;10500475;28;20046;-76
2023/06/24 21:44:32;;;;;;;6.38;2.70;;;;;;;19.76;72.14;102072.91;10510167;28;20127;-77
2023/06/24 21:49:34;;;;;;;6.53;2.95;;;;;;;19.71;72.58;102077.31;10500765;28;20131;-76
2023/06/24 21:54:35;;;;;;;4.05;1.95;;;;;;;-147.53;100.00;57128.34;10517320;28;20067;-76
2023/06/24 21:59:37;;;;;;;5.90;2.60;;;;;;;-147.53;100.00;57128.34;10532044;28;20079;-76
2023/06/24 22:04:38;;;;;;;5.30;2.30;;;;;;;19.61;72.63;102074.66;10518802;28;20048;-76
2023/06/24 22:09:40;;;;;;;8.15;2.58;;;;;;;19.21;74.15;102076.41;10519230;28;20132;-77
2023/06/24 22:14:42;;;;;;;5.82;2.15;;;;;;;19.07;74.97;102071.94;10518575;28;20075;-76
2023/06/24 22:19:44;;;;;;;7.93;2.50;;;;;;;18.88;75.44;102065.69;10519103;28;20117;-77
2023/06/24 22:24:46;;;;;;;6.30;2.58;;;;;;;18.81;76.34;102061.25;10491788;28;20048;-77
2023/06/24 22:29:48;;;;;;;4.47;2.20;;;;;;;18.75;76.89;102066.53;10526676;28;20078;-76
2023/06/24 22:34:52;;;;;;;6.10;2.60;;;;;;;18.62;77.29;102064.72;10511591;28;20055;-77
2023/06/24 22:39:54;;;;;;;4.95;2.38;;;;;;;18.46;77.52;102067.28;10508238;28;20067;-76
2023/06/24 22:44:55;;;;;;;6.15;2.63;;;;;;;18.41;77.87;102058.41;10507957;28;20504;-76
2023/06/24 22:49:57;;;;;;;4.40;2.10;;;;;;;18.32;78.34;102063.69;10500982;28;20098;-77
2023/06/24 22:54:59;;;;;;;4.10;2.05;;;;;;;18.29;78.96;102063.66;10507665;28;20143;-76
2023/06/24 23:00:01;;;;;;;5.93;2.60;;;;;;;18.19;79.07;102058.31;10526666;28;20645;-76
2023/06/24 23:05:04;;;;;;;6.70;2.60;;;;;;;18.15;79.22;102061.81;10499445;28;20070;-76
2023/06/24 23:10:06;;;;;;;5.53;2.78;;;;;;;18.12;79.61;102059.16;10508645;28;20045;-76
2023/06/24 23:15:09;;;;;;;6.38;2.95;;;;;;;18.04;79.74;102055.56;10485249;28;20044;-77